Tiempo atmosférico en la estación meteorológica de Autilla del Pino, Palencia (874 m.)

Fecha
DESCASC
Temp. máxima en grados centígrados (hora)
DESCASC
Temp. mínima en grados centígrados (hora)
DESCASC
Temp. media en grados centígrados
DESCASC
Racha de viento máxima en m/sg (hora)
DESCASC
Velocidad máxima media en intervalos de 10 minutos(hora)
DESCASC
Precipitaciones diarias en mm
DESCASC
Precipitaciones de 00:00 a 06:00 en mm
DESCASC
Precipitaciones de 06:00 a 12:00 en mm
DESCASC
Precipitaciones de 12:00 a 18:00 en mm
DESCASC
Precipitaciones de 18:00 a 24:00 en mm
DESCASC
19-10-2017 15.1 (15:50) 3.1 (09:00) 9.1 9.44 (19:20) 7.22 (19:40) 0 0 0 0 0
18-10-2017 13.3 (17:10) 7.1 (23:59) 10.2 8.89 (15:40) 6.94 (11:40) 1.6 0 1.6 0 0
17-10-2017 18.2 (14:30) 9.3 (23:50) 13.8 13.33 (14:40) 10.28 (14:40) 0.3 0 0 0.3 0
16-10-2017 26.3 (15:40) 11.9 (07:10) 19.1 8.61 (13:40) 5.83 (01:40) 0 0 0 0 0
15-10-2017 29.2 (15:40) 13.7 (00:00) 21.5 13.89 (18:10) 7.5 (18:20) 0 0 0 0 0
14-10-2017 27 (16:50) 8.5 (00:00) 17.8 7.78 (16:30) 5.83 (18:10) 0 0 0 0 0
13-10-2017 26 (16:00) 10.2 (00:00) 18.1 7.22 (17:30) 5.56 (17:30) 0 0 0 0 0
12-10-2017 27.1 (17:10) 7.8 (00:00) 17.5 7.5 (16:30) 4.72 (00:10) 0 0 0 0 0
11-10-2017 24.4 (15:40) 8.4 (00:00) 16.4 8.06 (16:20) 5.56 (23:20) 0 0 0 0 0
10-10-2017 25.7 (17:10) 6.5 (00:00) 16.1 5.83 (17:30) 4.17 (07:00) 0 0 0 0 0
09-10-2017 25.1 (17:30) 6.7 (00:00) 15.9 6.67 (03:20) 5.83 (02:50) 0 0 0 0 0
08-10-2017 25.1 (17:30) 6.5 (00:00) 15.8 6.94 (22:50) 5.56 (22:50) 0 0 0 0 0
07-10-2017 24.7 (17:10) 5.3 (00:00) 15 8.61 (00:30) 6.67 (03:50) 0 0 0 0 0
06-10-2017 23.1 (16:40) 8.8 (00:00) 16 11.67 (02:30) 9.72 (02:30) 0 0 0 0 0
05-10-2017 28.8 (16:40) 10.9 (00:00) 19.8 12.22 (21:30) 9.72 (21:30) 0 0 0 0 0
04-10-2017 28.5 (18:00) 9.4 (00:00) 18.9 16.39 (01:40) 5.83 (01:20) 0 0 0 0 0
03-10-2017 26.4 (17:50) 11.4 (00:00) 18.9 9.17 (22:00) 6.94 (22:50) 0 0 0 0 0
02-10-2017 26.5 (17:00) 13.1 (00:00) 19.8 7.22 (14:50) 4.17 (15:10) 0 0 0 0 0
01-10-2017 22.5 (17:50) 11 (00:00) 16.8 7.22 (00:10) 5.83 (00:10) 0 0 0 0 0
30-09-2017 22.6 (16:30) 11.7 (00:00) 17.2 8.89 (23:40) 7.22 (23:40) 0 0 0 0 0
29-09-2017 26.6 (17:00) 10.9 (00:00) 18.8 10 (14:20) 6.94 (17:30) 0 0 0 0 0
28-09-2017 26.8 (15:50) 9.3 (00:00) 18 7.22 (14:00) 4.72 (01:50) 0 0 0 0 0
27-09-2017 25.8 (17:40) 7.8 (00:00) 16.8 8.61 (15:30) 5.28 (15:20) 0 0 0 0 0
26-09-2017 23 (18:00) 8.5 (00:00) 15.8 9.17 (00:10) 6.39 (00:10) 0 0 0 0 0
25-09-2017 21.6 (17:30) 9.6 (00:00) 15.6 10.83 (23:30) 7.22 (23:40) 0 0 0 0 0
24-09-2017 27.4 (16:50) 9.3 (00:00) 18.3 11.67 (18:20) 7.78 (18:20) 0 0 0 0 0
23-09-2017 26.2 (16:30) 8.5 (00:00) 17.4 11.11 (15:20) 6.67 (16:10) 0 0 0 0 0
22-09-2017 23.9 (18:10) 10.3 (00:00) 17.1 11.67 (01:10) 8.06 (04:10) 0 0 0 0 0
21-09-2017 -- (--) -- (--) -- 12.78 (21:50) 9.17 (21:50) -- 0 0 0 --
20-09-2017 25.2 (16:20) 6.1 (00:00) 15.7 6.67 (17:30) 3.89 (06:20) 0 0 0 0 0

Gráficas

Temp. máximas Temp. mínimas Temp. medias Precipitaciones Rachas de viento máximas Velocidades máximas media en intervalos de 10 minutos

Datos horarios

Fecha y hora oficial Temperatura (ºC) Velocidad del viento (km/h) Dirección del viento Racha (km/h) Dirección de racha Precipitación (mm) Presión (hPa) Tendencia (hPa) Humedad (%)
2017-10-19 23:00:00 9.9 21 Oeste 29 Oeste 0 -- -- 99
2017-10-19 22:00:00 10.3 13 Oeste 29 Oeste 0 -- -- 93
2017-10-19 21:00:00 11 24 Oeste 33 Oeste 0 -- -- 90
2017-10-19 20:00:00 11.6 21 Oeste 34 Oeste 0 -- -- 83
2017-10-19 19:00:00 12.9 24 Oeste 33 Oeste 0 -- -- 72
2017-10-19 18:00:00 13.5 24 Oeste 32 Oeste 0 -- -- 65
2017-10-19 17:00:00 13.8 21 Oeste 32 Oeste 0 -- -- 66
2017-10-19 16:00:00 14.7 18 Oeste 28 Oeste 0 -- -- 59
2017-10-19 15:00:00 14.1 14 Oeste 25 Oeste 0 -- -- 63
2017-10-19 14:00:00 12.8 10 Oeste 22 Oeste 0 -- -- 75
2017-10-19 13:00:00 11.3 14 Oeste 23 Noroeste 0 -- -- 83
2017-10-19 12:00:00 9.6 10 Oeste 17 Noroeste 0 -- -- 99
2017-10-19 11:00:00 7.7 8 Oeste 13 Oeste 0 -- -- 99
2017-10-19 10:00:00 5.2 4 Sur 10 Oeste 0 -- -- 99
2017-10-19 09:00:00 3.1 9 Oeste 13 Oeste 0 -- -- 99
2017-10-19 08:00:00 3.8 11 Oeste 15 Oeste 0 -- -- 99
2017-10-19 07:00:00 4.4 10 Oeste 16 Oeste 0 -- -- 99
2017-10-19 06:00:00 5.1 14 Oeste 18 Noroeste 0 -- -- 99
2017-10-19 05:00:00 5.2 14 Oeste 18 Oeste 0 -- -- 99
2017-10-19 04:00:00 5.5 14 Oeste 20 Noroeste 0 -- -- 99
2017-10-19 03:00:00 5.7 15 Oeste 23 Oeste 0 -- -- 99
2017-10-19 02:00:00 6.7 20 Oeste 27 Oeste 0 -- -- 99
2017-10-19 01:00:00 6.7 19 Oeste 24 Oeste 0 -- -- 99
2017-10-19 00:00:00 7.1 19 Oeste 28 Oeste 0 -- -- 99
2017-10-18 23:00:00 7.9 18 Oeste 26 Oeste 0 -- -- 99
2017-10-18 22:00:00 8.3 12 Oeste 21 Oeste 0 -- -- 99
2017-10-18 21:00:00 9 17 Oeste 23 Oeste 0 -- -- 95
2017-10-18 20:00:00 9.7 16 Oeste 23 Oeste 0 -- -- 92
2017-10-18 19:00:00 11.2 9 Noroeste 17 Norte 0 -- -- 87
2017-10-18 18:00:00 11.6 8 Noroeste 28 Oeste 0 -- -- 87
2017-10-18 17:00:00 13 21 Oeste 32 Oeste 0 -- -- 77
2017-10-18 16:00:00 12.1 23 Oeste 32 Oeste 0 -- -- 85
2017-10-18 15:00:00 11.7 19 Oeste 28 Oeste 0 -- -- 92
2017-10-18 14:00:00 11.6 18 Oeste 30 Sudoeste 0 -- -- 97
2017-10-18 13:00:00 10.3 21 Sudoeste 27 Sudoeste 0 -- -- 99
2017-10-18 12:00:00 9.3 22 Sudoeste 32 Sudoeste 0.4 -- -- 99
2017-10-18 11:00:00 9.5 18 Sudoeste 23 Sudoeste 0.2 -- -- 99
2017-10-18 10:00:00 8.9 15 Sudoeste 22 Sudoeste 0.1 -- -- 99
2017-10-18 09:00:00 8.6 16 Sudoeste 21 Sudoeste 0.3 -- -- 99
2017-10-18 08:00:00 8.4 13 Sudoeste 18 Sudoeste 0.5 -- -- 99
2017-10-18 07:00:00 8.9 13 Sudoeste 19 Sur 0.1 -- -- 99
2017-10-18 06:00:00 8.8 12 Sur 19 Sur 0 -- -- 99
2017-10-18 05:00:00 8.3 13 Sur 17 Sudoeste 0 -- -- 99
2017-10-18 04:00:00 7.8 13 Sur 18 Sudoeste 0 -- -- 99
2017-10-18 03:00:00 8 13 Sur 20 Sur 0 -- -- 99
2017-10-18 02:00:00 8.4 15 Sudoeste 19 Sudoeste 0 -- -- 99
2017-10-18 01:00:00 8.2 15 Sudoeste 21 Sudoeste 0 -- -- 99
2017-10-18 00:00:00 9.5 17 Sudoeste 19 Sudoeste 0 -- -- 99
2017-10-17 23:00:00 10.7 14 Sudoeste 23 Sudoeste 0 -- -- 99
2017-10-17 22:00:00 12.4 19 Sudoeste 33 Sur 0 -- -- 99
2017-10-17 21:00:00 13.7 24 Sur 32 Sudoeste 0 -- -- 99
2017-10-17 20:00:00 15.2 17 Sudoeste 26 Sudoeste 0 -- -- 95
2017-10-17 19:00:00 15.8 21 Sudoeste 32 Sudoeste 0 -- -- 92
2017-10-17 18:00:00 16.3 26 Sudoeste 36 Sudoeste 0 -- -- 89
2017-10-17 17:00:00 17 26 Sudoeste 36 Sudoeste 0 -- -- 91
2017-10-17 16:00:00 16.1 25 Sudoeste 41 Sur 0.3 -- -- 98
2017-10-17 15:00:00 15.4 35 Sudoeste 48 Sudoeste 0 -- -- 89
2017-10-17 14:00:00 17.5 32 Sudoeste 44 Sur 0 -- -- 79
2017-10-17 13:00:00 17 32 Sudoeste 43 Sudoeste 0 -- -- 79
2017-10-17 12:00:00 17.9 29 Sur 40 Sudoeste 0 -- -- 75
2017-10-17 11:00:00 16.7 21 Sur 30 Sur 0 -- -- 75
2017-10-17 10:00:00 14.9 10 Sur 19 Sur 0 -- -- 76
2017-10-17 09:00:00 14.3 13 Sur 22 Sur 0 -- -- 75
2017-10-17 08:00:00 13.9 7 Sudeste 16 Sudeste 0 -- -- 75
2017-10-17 07:00:00 14.2 6 Sudeste 17 Sudeste 0 -- -- 75
2017-10-17 06:00:00 14 8 Sudeste 16 Sur 0 -- -- 74
2017-10-17 05:00:00 13.6 7 Sudeste 18 Sur 0 -- -- 73
2017-10-17 04:00:00 13.9 8 Sudeste 18 Sudeste 0 -- -- 71
2017-10-17 03:00:00 15 8 Sudeste 23 Sudeste 0 -- -- 68
2017-10-17 02:00:00 15.4 15 Sur 20 Sur 0 -- -- 67
2017-10-17 01:00:00 16.2 15 Sur 18 Sur 0 -- -- 64
2017-10-17 00:00:00 15.1 12 Sur 20 Sur 0 -- -- 65
2017-10-16 23:00:00 15.9 9 Este 15 Nordeste 0 -- -- 64
2017-10-16 22:00:00 16.9 10 Nordeste 15 Nordeste 0 -- -- 61
2017-10-16 21:00:00 18 5 Norte 19 Noroeste 0 -- -- 58
2017-10-16 20:00:00 19.7 17 Oeste 21 Oeste 0 -- -- 51
2017-10-16 19:00:00 23.1 18 Oeste 26 Sur 0 -- -- 46
2017-10-16 18:00:00 25.3 14 Sudoeste 24 Sudoeste 0 -- -- 45
2017-10-16 17:00:00 25.3 12 Sudoeste 29 Sudoeste 0 -- -- 46
2017-10-16 16:00:00 25.9 15 Sudoeste 29 Sudoeste 0 -- -- 46
2017-10-16 15:00:00 25.3 14 Sudoeste 24 Sur 0 -- -- 48
2017-10-16 14:00:00 23.9 13 Sudoeste 31 Sudoeste 0 -- -- 51
2017-10-16 13:00:00 23.2 12 Sur 25 Sur 0 -- -- 60
2017-10-16 12:00:00 21.3 17 Sur 27 Sur 0 -- -- 66
2017-10-16 11:00:00 18 18 Sur 26 Sur 0 -- -- 72
2017-10-16 10:00:00 15 11 Sur 22 Sur 0 -- -- 77
2017-10-16 09:00:00 12.4 18 Sur 22 Sur 0 -- -- 79
2017-10-16 08:00:00 13 19 Sur 24 Sur 0 -- -- 78
2017-10-16 07:00:00 12.2 18 Sur 22 Sur 0 -- -- 76
2017-10-16 06:00:00 13.8 9 Sur 21 Sur 0 -- -- 75
2017-10-16 05:00:00 13.5 16 Sur 21 Sur 0 -- -- 75
2017-10-16 04:00:00 14.1 15 Sur 20 Sur 0 -- -- 72
2017-10-16 03:00:00 16.1 17 Sur 22 Sur 0 -- -- 68
2017-10-16 02:00:00 17.3 20 Sur 26 Sur 0 -- -- 65
2017-10-16 01:00:00 17.4 18 Sur 21 Sur 0 -- -- 64
2017-10-16 00:00:00 18.1 17 Sur 24 Sur 0 -- -- 61
2017-10-15 23:00:00 19.1 20 Sur 24 Sur 0 -- -- 58
2017-10-15 22:00:00 19.9 17 Sur 22 Sur 0 -- -- 56
2017-10-15 21:00:00 20.5 17 Sur 21 Sur 0 -- -- 55
2017-10-15 20:00:00 23.3 10 Sur 14 Sur 0 -- -- 51
2017-10-15 19:00:00 25 8 Sudeste 50 Sur 0 -- -- 48
2017-10-15 18:00:00 27.4 10 Sur 28 Sur 0 -- -- 43
2017-10-15 17:00:00 28 13 Sur 28 Sur 0 -- -- 43
2017-10-15 16:00:00 28.7 9 Sur 28 Sur 0 -- -- 43
2017-10-15 15:00:00 28.1 12 Sur 26 Sur 0 -- -- 45
2017-10-15 14:00:00 28.1 11 Sur 20 Sur 0 -- -- 47
2017-10-15 13:00:00 25.6 10 Sur 22 Sudeste 0 -- -- 50
2017-10-15 12:00:00 23.3 8 Sudeste 18 Sudeste 0 -- -- 55
2017-10-15 11:00:00 18.4 12 Sudeste 17 Sudeste 0 -- -- 61
2017-10-15 10:00:00 16.6 11 Este 15 Sudeste 0 -- -- 64
2017-10-15 09:00:00 14.5 12 Este 20 Sudeste 0 -- -- 66
2017-10-15 08:00:00 15 8 Sudeste 18 Sudeste 0 -- -- 67
2017-10-15 07:00:00 15.6 11 Sur 19 Sur 0 -- -- 65
2017-10-15 06:00:00 15.6 5 Sudeste 14 Sur 0 -- -- 61
2017-10-15 05:00:00 17.1 10 Sur 14 Sur 0 -- -- 58
2017-10-15 04:00:00 15.8 10 Sur 13 Sur 0 -- -- 60
2017-10-15 03:00:00 16.5 10 Sur 14 Sudoeste 0 -- -- 58
2017-10-15 02:00:00 17.1 13 Sur 15 Sur 0 -- -- 56
2017-10-15 01:00:00 18.3 12 Sur 14 Sudoeste 0 -- -- 56
2017-10-15 00:00:00 16.6 12 Sudoeste 15 Sudoeste 0 -- -- 55
2017-10-14 23:00:00 18 10 Sudoeste 12 Sudoeste 0 -- -- 51
2017-10-14 22:00:00 19.5 5 Sudoeste 7 Sudoeste 0 -- -- 50
2017-10-14 21:00:00 20.9 6 Oeste 7 Oeste 0 -- -- 48
2017-10-14 20:00:00 21 7 Oeste 21 Oeste 0 -- -- 46
2017-10-14 19:00:00 24.2 16 Oeste 27 Oeste 0 -- -- 43
2017-10-14 18:00:00 26.1 19 Oeste 27 Oeste 0 -- -- 41
2017-10-14 17:00:00 26.6 18 Oeste 28 Oeste 0 -- -- 41
2017-10-14 16:00:00 26.3 14 Oeste 24 Oeste 0 -- -- 44
2017-10-14 15:00:00 24.8 9 Oeste 19 Oeste 0 -- -- 51
2017-10-14 14:00:00 24.1 6 Oeste 18 Oeste 0 -- -- 54
2017-10-14 13:00:00 22.1 8 Sudoeste 15 Sudoeste 0 -- -- 58
2017-10-14 12:00:00 19.3 6 Sur 15 Sur 0 -- -- 66
2017-10-14 11:00:00 16.6 6 Sudeste 13 Sudeste 0 -- -- 75
2017-10-14 10:00:00 13.6 9 Sudeste 13 Sudeste 0 -- -- 84
2017-10-14 09:00:00 9.2 10 Sudeste 13 Sudeste 0 -- -- 95
2017-10-14 08:00:00 8.6 12 Este 13 Este 0 -- -- 95
2017-10-14 07:00:00 10.1 6 Sudeste 8 Sudeste 0 -- -- 90
2017-10-14 06:00:00 10.6 6 Este 11 Sudeste 0 -- -- 85
2017-10-14 05:00:00 12 9 Este 12 Este 0 -- -- 84
2017-10-14 04:00:00 12.4 12 Este 12 Este 0 -- -- 78
2017-10-14 03:00:00 14.6 9 Sur 13 Sur 0 -- -- 73
2017-10-14 02:00:00 14.8 10 Este 13 Este 0 -- -- 72
2017-10-14 01:00:00 15.9 9 Sudeste 12 Este 0 -- -- 67
2017-10-14 00:00:00 18.6 7 Sudeste 9 Sudeste 0 -- -- 63
2017-10-13 23:00:00 19.1 5 Sudeste 6 Sudeste 0 -- -- 62
2017-10-13 22:00:00 18.8 5 Este 8 Nordeste 0 -- -- 64
2017-10-13 21:00:00 18.4 7 Norte 10 Norte 0 -- -- 62
2017-10-13 20:00:00 18.1 9 Noroeste 12 Noroeste 0 -- -- 61
2017-10-13 19:00:00 22.9 9 Noroeste 19 Noroeste 0 -- -- 56
2017-10-13 18:00:00 23.2 16 Noroeste 26 Noroeste 0 -- -- 57
2017-10-13 17:00:00 24.7 16 Oeste 24 Oeste 0 -- -- 53
2017-10-13 16:00:00 25.6 16 Oeste 25 Noroeste 0 -- -- 52
2017-10-13 15:00:00 24.3 8 Noroeste 24 Oeste 0 -- -- 52
2017-10-13 14:00:00 24.2 8 Noroeste 19 Oeste 0 -- -- 52
2017-10-13 13:00:00 23.4 8 Sudoeste 18 Sudoeste 0 -- -- 53
2017-10-13 12:00:00 21.3 10 Sudoeste 16 Sudoeste 0 -- -- 58
2017-10-13 11:00:00 18.5 12 Sur 16 Sur 0 -- -- 65
2017-10-13 10:00:00 14.9 7 Sudeste 13 Sudeste 0 -- -- 70
2017-10-13 09:00:00 11.2 7 Sudeste 14 Sudeste 0 -- -- 73
2017-10-13 08:00:00 11.2 8 Sudeste 14 Sudeste 0 -- -- 70
2017-10-13 07:00:00 11.7 9 Sudeste 14 Sudeste 0 -- -- 65
2017-10-13 06:00:00 11.8 6 Sudeste 17 Sudeste 0 -- -- 61
2017-10-13 05:00:00 14 9 Sudeste 12 Sudeste 0 -- -- 57
2017-10-13 04:00:00 13.8 10 Sudeste 13 Sudeste 0 -- -- 54
2017-10-13 03:00:00 13.9 12 Este 17 Sudeste 0 -- -- 51
2017-10-13 02:00:00 15.9 12 Este 15 Este 0 -- -- 49
2017-10-13 01:00:00 15.5 13 Este 21 Este 0 -- -- 48
2017-10-13 00:00:00 16.6 12 Este 14 Sudeste 0 -- -- 47
2017-10-12 23:00:00 17.6 13 Sudeste 16 Sudeste 0 -- -- 44
2017-10-12 22:00:00 18.7 8 Este 10 Este 0 -- -- 42
2017-10-12 21:00:00 20.4 8 Nordeste 10 Este 0 -- -- 41
2017-10-12 20:00:00 21.7 6 Nordeste 8 Nordeste 0 -- -- 39
2017-10-12 19:00:00 24.6 4 Nordeste 9 Noroeste 0 -- -- 38
2017-10-12 18:00:00 26.2 8 Noroeste 13 Noroeste 0 -- -- 36
2017-10-12 17:00:00 26.5 6 Sudoeste 27 Oeste 0 -- -- 36
2017-10-12 16:00:00 25.9 11 Sudoeste 20 Sur 0 -- -- 37
2017-10-12 15:00:00 25.1 4 Sudoeste 22 Sur 0 -- -- 39
2017-10-12 14:00:00 24.2 11 Sur 20 Sur 0 -- -- 41
2017-10-12 13:00:00 22 10 Sur 16 Sur 0 -- -- 46
2017-10-12 12:00:00 18.5 5 Sudeste 13 Sudeste 0 -- -- 53
2017-10-12 11:00:00 14.7 8 Sudeste 10 Sudeste 0 -- -- 57
2017-10-12 10:00:00 12.3 7 Sudeste 10 Sudeste 0 -- -- 60
2017-10-12 09:00:00 10.6 4 Sudeste 9 Sur 0 -- -- 61
2017-10-12 08:00:00 9.8 6 Sudoeste 13 Sudoeste 0 -- -- 62
2017-10-12 07:00:00 10 12 Sur 14 Sudoeste 0 -- -- 60
2017-10-12 06:00:00 10.2 13 Sudoeste 14 Sudoeste 0 -- -- 59
2017-10-12 05:00:00 9.9 11 Sudoeste 14 Sudoeste 0 -- -- 59
2017-10-12 04:00:00 9.5 13 Sudoeste 18 Sudoeste 0 -- -- 57
2017-10-12 03:00:00 10.4 13 Sudoeste 17 Sudoeste 0 -- -- 54
2017-10-12 02:00:00 10.6 13 Sudoeste 18 Oeste 0 -- -- 53
2017-10-12 01:00:00 13.7 14 Oeste 22 Oeste 0 -- -- 49
2017-10-12 00:00:00 15.6 17 Oeste 28 Oeste 0 -- -- 46
2017-10-11 23:00:00 13.6 17 Oeste 20 Oeste 0 -- -- 46
2017-10-11 22:00:00 15.8 11 Sudoeste 12 Sudoeste 0 -- -- 44
2017-10-11 21:00:00 17.1 9 Sudoeste 11 Sudoeste 0 -- -- 42
2017-10-11 20:00:00 18.3 9 Sudoeste 11 Oeste 0 -- -- 41
2017-10-11 19:00:00 22.1 9 Oeste 21 Oeste 0 -- -- 38
2017-10-11 18:00:00 23.6 16 Oeste 27 Oeste 0 -- -- 38
2017-10-11 17:00:00 24.3 17 Oeste 29 Noroeste 0 -- -- 39
2017-10-11 16:00:00 24 17 Oeste 28 Noroeste 0 -- -- 42
2017-10-11 15:00:00 23.3 12 Oeste 24 Oeste 0 -- -- 42
2017-10-11 14:00:00 22.4 9 Oeste 22 Sudoeste 0 -- -- 45
2017-10-11 13:00:00 20.2 6 Sudeste 10 Sudeste 0 -- -- 48
2017-10-11 12:00:00 17.7 4 Noroeste 11 Sudoeste 0 -- -- 48
2017-10-11 11:00:00 14.6 8 Sur 13 Sudoeste 0 -- -- 52
2017-10-11 10:00:00 11.5 8 Sur 14 Sur 0 -- -- 56
2017-10-11 09:00:00 8.5 6 Sur 14 Sur 0 -- -- 57
2017-10-11 08:00:00 9.3 8 Sur 13 Sur 0 -- -- 55
2017-10-11 07:00:00 11 8 Sur 15 Sudoeste 0 -- -- 52
2017-10-11 06:00:00 10.7 11 Sur 13 Sudoeste 0 -- -- 51
2017-10-11 05:00:00 11.7 7 Sudoeste 9 Sudoeste 0 -- -- 50
2017-10-11 04:00:00 10.4 7 Sur 11 Sur 0 -- -- 51
2017-10-11 03:00:00 14.8 6 Sudeste 7 Sudeste 0 -- -- 44
2017-10-11 02:00:00 15.2 4 Sudeste 11 Sur 0 -- -- 44
2017-10-11 01:00:00 16.7 8 Sur 8 Sur 0 -- -- 42
2017-10-11 00:00:00 16.9 4 Sudeste 7 Oeste 0 -- -- 42
2017-10-10 23:00:00 17.5 6 Oeste 9 Oeste 0 -- -- 41
2017-10-10 22:00:00 17.6 7 Oeste 9 Oeste 0 -- -- 40
2017-10-10 21:00:00 17.5 9 Oeste 11 Oeste 0 -- -- 40
2017-10-10 20:00:00 19.3 9 Noroeste 13 Noroeste 0 -- -- 38
2017-10-10 19:00:00 24.1 10 Oeste 19 Noroeste 0 -- -- 37
2017-10-10 18:00:00 25 6 Noroeste 21 Noroeste 0 -- -- 37
2017-10-10 17:00:00 24.9 10 Noroeste 18 Oeste 0 -- -- 37
2017-10-10 16:00:00 25.5 5 Noroeste 18 Norte 0 -- -- 38
2017-10-10 15:00:00 24.5 7 Sur 16 Sur 0 -- -- 39
2017-10-10 14:00:00 23.1 4 Norte 14 Este 0 -- -- 43
2017-10-10 13:00:00 21.3 4 Sudeste 12 Sudeste 0 -- -- 48
2017-10-10 12:00:00 18.1 7 Sudeste 12 Sudeste 0 -- -- 55
2017-10-10 11:00:00 14.3 8 Sudeste 12 Este 0 -- -- 65
2017-10-10 10:00:00 11.8 11 Este 14 Este 0 -- -- 70
2017-10-10 09:00:00 8.1 11 Este 13 Sudeste 0 -- -- 78
2017-10-10 08:00:00 7.1 12 Este 15 Este 0 -- -- 77
2017-10-10 07:00:00 7.7 15 Sudeste 16 Sudeste 0 -- -- 77
2017-10-10 06:00:00 7.6 14 Este 15 Este 0 -- -- 75
2017-10-10 05:00:00 8 10 Este 14 Este 0 -- -- 73
2017-10-10 04:00:00 9.1 12 Este 14 Este 0 -- -- 67
2017-10-10 03:00:00 10.1 12 Este 15 Este 0 -- -- 61
2017-10-10 02:00:00 10.3 15 Este 16 Este 0 -- -- 56
2017-10-10 01:00:00 11.8 13 Este 14 Este 0 -- -- 52
2017-10-10 00:00:00 13.1 9 Este 16 Nordeste 0 -- -- 50
2017-10-09 23:00:00 13.3 13 Nordeste 15 Nordeste 0 -- -- 44
2017-10-09 22:00:00 17.6 3 Nordeste 5 Norte 0 -- -- 40
2017-10-09 21:00:00 19.1 3 Norte 5 Nordeste 0 -- -- 38
2017-10-09 20:00:00 20 4 Noroeste 9 Norte 0 -- -- 37
2017-10-09 19:00:00 23 6 Norte 13 Norte 0 -- -- 35
2017-10-09 18:00:00 24.4 6 Noroeste 15 Norte 0 -- -- 36
2017-10-09 17:00:00 24.5 5 Noroeste 22 Norte 0 -- -- 37
2017-10-09 16:00:00 24.2 2 Noroeste 14 Norte 0 -- -- 38
2017-10-09 15:00:00 22.8 6 Nordeste 14 Norte 0 -- -- 41
2017-10-09 14:00:00 21.8 7 Este 22 Este -- -- -- 47
2017-10-09 13:00:00 19.8 9 Este 18 Este 0.1 -- -- 52
2017-10-09 12:00:00 17.3 10 Este 17 Este 0 -- -- 58
2017-10-09 11:00:00 14.6 14 Este 20 Este 0 -- -- 63
2017-10-09 10:00:00 12.7 13 Este 17 Este 0 -- -- 69
2017-10-09 09:00:00 8.4 13 Este 17 Este 0 -- -- 82
2017-10-09 08:00:00 6.9 15 Este 17 Este 0 -- -- 82
2017-10-09 07:00:00 8 17 Este 19 Este 0 -- -- 77
2017-10-09 06:00:00 9.5 16 Este 21 Este 0 -- -- 73
2017-10-09 05:00:00 9.6 18 Este 21 Este 0 -- -- 71
2017-10-09 04:00:00 10 18 Este 24 Este 0 -- -- 68
2017-10-09 03:00:00 10.8 21 Este 24 Este 0 -- -- 64
2017-10-09 02:00:00 11.4 17 Este 23 Este 0 -- -- 60
2017-10-09 01:00:00 12.3 19 Este 24 Este 0 -- -- 54
2017-10-09 00:00:00 13.7 20 Este 23 Este 0 -- -- 49
2017-10-08 23:00:00 15 19 Este 25 Este 0 -- -- 43
2017-10-08 22:00:00 15.3 15 Este 20 Este 0 -- -- 40
2017-10-08 21:00:00 18.6 5 Noroeste 5 Noroeste 0 -- -- 34
2017-10-08 20:00:00 20.8 5 Nordeste 6 Norte 0 -- -- 33
2017-10-08 19:00:00 24.3 4 Noroeste 13 Noroeste 0 -- -- 31
2017-10-08 18:00:00 24.8 6 Noroeste 15 Noroeste 0 -- -- 32
2017-10-08 17:00:00 24.5 6 Noroeste 15 Noroeste 0 -- -- 32
2017-10-08 16:00:00 24.7 4 Noroeste 13 Noroeste 0 -- -- 34
2017-10-08 15:00:00 22.8 6 Norte 11 Norte 0 -- -- 36
2017-10-08 14:00:00 21.5 5 Norte 11 Norte 0 -- -- 38
2017-10-08 13:00:00 20.1 3 Sudeste 13 Sudeste 0 -- -- 38
2017-10-08 12:00:00 17.6 8 Este 13 Sudeste 0 -- -- 46
2017-10-08 11:00:00 15.2 7 Este 14 Este 0 -- -- 55
2017-10-08 10:00:00 12.5 12 Este 16 Este 0 -- -- 61
2017-10-08 09:00:00 8.5 9 Este 16 Este 0 -- -- 73
2017-10-08 08:00:00 6.8 12 Este 14 Este 0 -- -- 74
2017-10-08 07:00:00 7.4 13 Este 18 Este 0 -- -- 69
2017-10-08 06:00:00 8.8 14 Este 19 Este 0 -- -- 63
2017-10-08 05:00:00 9 17 Este 19 Este 0 -- -- 59
2017-10-08 04:00:00 9.9 16 Este 21 Este 0 -- -- 56
2017-10-08 03:00:00 10.2 17 Este 20 Este 0 -- -- 55
2017-10-08 02:00:00 10 13 Este 14 Este 0 -- -- 51
2017-10-08 01:00:00 10.9 13 Este 15 Este 0 -- -- 44
2017-10-08 00:00:00 11.6 4 Nordeste 17 Este 0 -- -- 38
2017-10-07 23:00:00 15 14 Este 20 Este 0 -- -- 33
2017-10-07 22:00:00 14.5 13 Este 18 Este 0 -- -- 30
2017-10-07 21:00:00 15.9 10 Este 18 Nordeste 0 -- -- 27
2017-10-07 20:00:00 18.6 12 Nordeste 14 Nordeste 0 -- -- 26
2017-10-07 19:00:00 23 10 Nordeste 19 Nordeste 0 -- -- 24
2017-10-07 18:00:00 24.2 14 Nordeste 25 Este 0 -- -- 24
2017-10-07 17:00:00 24.2 15 Este 26 Este 0 -- -- 24
2017-10-07 16:00:00 24 15 Este 25 Este 0 -- -- 24
2017-10-07 15:00:00 22.7 17 Este 29 Este 0 -- -- 26
2017-10-07 14:00:00 20.9 17 Nordeste 25 Nordeste 0 -- -- 29
2017-10-07 13:00:00 18.3 14 Nordeste 23 Nordeste 0 -- -- 34
2017-10-07 12:00:00 15.3 17 Nordeste 26 Nordeste 0 -- -- 46
2017-10-07 11:00:00 12.7 15 Nordeste 27 Nordeste 0 -- -- 53
2017-10-07 10:00:00 9.8 19 Este 26 Este 0 -- -- 67
2017-10-07 09:00:00 6.6 19 Este 26 Este 0 -- -- 81
2017-10-07 08:00:00 5.8 17 Este 27 Este 0 -- -- 84
2017-10-07 07:00:00 6.6 24 Nordeste 30 Nordeste 0 -- -- 85
2017-10-07 06:00:00 6.4 22 Este 28 Este 0 -- -- 94
2017-10-07 05:00:00 7 21 Este 28 Este 0 -- -- 99
2017-10-07 04:00:00 6.8 21 Este 31 Este 0 -- -- 99
2017-10-07 03:00:00 7.3 22 Este 31 Nordeste 0 -- -- 99
2017-10-07 02:00:00 8.1 21 Nordeste 29 Nordeste 0 -- -- 99
2017-10-07 01:00:00 9 16 Este 31 Este 0 -- -- 99
2017-10-07 00:00:00 10.4 22 Este 32 Este 0 -- -- 99
2017-10-06 23:00:00 12.1 24 Este 37 Este 0 -- -- 92
2017-10-06 22:00:00 13.1 20 Este 31 Este 0 -- -- 83
2017-10-06 21:00:00 14.4 20 Este 29 Este 0 -- -- 77
2017-10-06 20:00:00 16.8 22 Este 32 Nordeste 0 -- -- 67
2017-10-06 19:00:00 19.6 27 Nordeste 37 Nordeste 0 -- -- 45
2017-10-06 18:00:00 21.9 23 Este 35 Nordeste 0 -- -- 51
2017-10-06 17:00:00 22.5 26 Nordeste 37 Nordeste 0 -- -- 51
2017-10-06 16:00:00 22.2 22 Este 34 Este 0 -- -- 55
2017-10-06 15:00:00 21.8 23 Este 34 Este 0 -- -- 57
2017-10-06 14:00:00 20.4 26 Nordeste 36 Este 0 -- -- 61
2017-10-06 13:00:00 19.6 25 Este 36 Este 0 -- -- 61
2017-10-06 12:00:00 17.6 22 Este 33 Este 0 -- -- 72
2017-10-06 11:00:00 14.8 26 Este 32 Este 0 -- -- 83
2017-10-06 10:00:00 11.7 25 Este 30 Este 0 -- -- 99
2017-10-06 09:00:00 9.5 22 Este 28 Este 0 -- -- 99
2017-10-06 08:00:00 9 24 Este 30 Este 0 -- -- 99
2017-10-06 07:00:00 9.6 22 Este 29 Este 0 -- -- 99
2017-10-06 06:00:00 10 26 Este 35 Este 0 -- -- 99
2017-10-06 05:00:00 10.3 27 Este 35 Nordeste 0 -- -- 99
2017-10-06 04:00:00 10.8 28 Este 36 Este 0 -- -- 99
2017-10-06 03:00:00 11.1 30 Este 42 Este 0 -- -- 99
2017-10-06 02:00:00 11.8 30 Este 37 Este 0 -- -- 99
2017-10-06 01:00:00 13 30 Este 37 Este 0 -- -- 99
2017-10-06 00:00:00 14.2 28 Este 41 Este 0 -- -- 99
2017-10-05 23:00:00 15.7 29 Este 37 Este 0 -- -- 92
2017-10-05 22:00:00 17.1 30 Este 44 Este 0 -- -- 84
2017-10-05 21:00:00 20.1 30 Este 38 Este 0 -- -- 73
2017-10-05 20:00:00 22.4 23 Nordeste 31 Nordeste 0 -- -- 62
2017-10-05 19:00:00 27.7 6 Norte 17 Noroeste 0 -- -- 39
2017-10-05 18:00:00 28.2 9 Noroeste 20 Noroeste 0 -- -- 38
2017-10-05 17:00:00 28.1 13 Noroeste 27 Oeste 0 -- -- 40
2017-10-05 16:00:00 27.7 13 Noroeste 23 Oeste 0 -- -- 42
2017-10-05 15:00:00 27.3 8 Noroeste 16 Noroeste 0 -- -- 45
2017-10-05 14:00:00 25.8 4 Noroeste 13 Noroeste 0 -- -- 48
2017-10-05 13:00:00 24.1 5 Noroeste 13 Noroeste 0 -- -- 54
2017-10-05 12:00:00 22.4 8 Este 13 Este 0 -- -- 58
2017-10-05 11:00:00 19.6 4 Sudeste 10 Sudeste 0 -- -- 66
2017-10-05 10:00:00 16.3 6 Este 12 Este 0 -- -- 71
2017-10-05 09:00:00 13.4 5 Sudeste 12 Sudeste 0 -- -- 80
2017-10-05 08:00:00 11.3 12 Este 12 Este 0 -- -- 85
2017-10-05 07:00:00 12.2 9 Este 11 Sudeste 0 -- -- 82
2017-10-05 06:00:00 12.4 10 Este 11 Este 0 -- -- 77
2017-10-05 05:00:00 14.5 8 Este 10 Este 0 -- -- 70
2017-10-05 04:00:00 14.9 9 Sudeste 12 Sudeste 0 -- -- 66
2017-10-05 03:00:00 16.2 12 Sudeste 15 Sudeste 0 -- -- 62
2017-10-05 02:00:00 15.9 10 Este 14 Sudeste 0 -- -- 59
2017-10-05 01:00:00 17 14 Este 18 Sudeste 0 -- -- 56
2017-10-05 00:00:00 17.1 12 Este 13 Este 0 -- -- 51
2017-10-04 23:00:00 19.1 10 Este 12 Este 0 -- -- 48
2017-10-04 22:00:00 21.5 6 Este 9 Nordeste 0 -- -- 44
2017-10-04 21:00:00 23.1 5 Nordeste 6 Nordeste 0 -- -- 41
2017-10-04 20:00:00 24.4 4 Oeste 7 Oeste 0 -- -- 38
2017-10-04 19:00:00 27.3 5 Sudoeste 15 Sudoeste 0 -- -- 35
2017-10-04 18:00:00 28.1 8 Sudoeste 15 Sudoeste 0 -- -- 36
2017-10-04 17:00:00 27.8 4 Sudoeste 18 Sudoeste 0 -- -- 38
2017-10-04 16:00:00 27 8 Sur 19 Sudeste 0 -- -- 41
2017-10-04 15:00:00 25.4 7 Este 17 Este 0 -- -- 44
2017-10-04 14:00:00 24.2 11 Este 17 Este 0 -- -- 47
2017-10-04 13:00:00 21.6 9 Este 16 Sudeste 0 -- -- 60
2017-10-04 12:00:00 18.6 11 Este 22 Este 0 -- -- 72
2017-10-04 11:00:00 15.4 17 Este 26 Sudeste 0 -- -- 85
2017-10-04 10:00:00 12.7 15 Este 20 Este 0 -- -- 99
2017-10-04 09:00:00 10.7 10 Este 13 Este 0 -- -- 99
2017-10-04 08:00:00 10.2 10 Este 17 Este 0 -- -- 99
2017-10-04 07:00:00 10.4 11 Este 14 Este 0 -- -- 99
2017-10-04 06:00:00 11 11 Este 24 Este 0 -- -- 99
2017-10-04 05:00:00 11.5 18 Este 24 Este 0 -- -- 99
2017-10-04 04:00:00 12.9 19 Este 26 Este 0 -- -- 99
2017-10-04 03:00:00 13.3 19 Este 24 Este 0 -- -- 99
2017-10-04 02:00:00 13.7 20 Este 59 Este 0 -- -- 99
2017-10-04 01:00:00 14.5 18 Este 22 Este 0 -- -- 94
2017-10-04 00:00:00 15.6 18 Este 33 Este 0 -- -- 88
2017-10-03 23:00:00 17.1 24 Este 33 Este 0 -- -- 81
2017-10-03 22:00:00 18.2 24 Este 33 Este 0 -- -- 75
2017-10-03 21:00:00 20.1 24 Este 33 Este 0 -- -- 63
2017-10-03 20:00:00 21.9 10 Este 18 Nordeste 0 -- -- 53
2017-10-03 19:00:00 24.8 13 Nordeste 21 Nordeste 0 -- -- 49
2017-10-03 18:00:00 26.1 7 Este 23 Este 0 -- -- 48
2017-10-03 17:00:00 25.8 7 Nordeste 19 Este 0 -- -- 49
2017-10-03 16:00:00 25.4 7 Norte 29 Nordeste 0 -- -- 55
2017-10-03 15:00:00 25.2 10 Este 21 Este 0 -- -- 62
2017-10-03 14:00:00 23.8 9 Este 22 Este 0 -- -- 68
2017-10-03 13:00:00 22 15 Este 24 Este 0 -- -- 73
2017-10-03 12:00:00 20.4 15 Este 22 Este 0 -- -- 76
2017-10-03 11:00:00 17.6 10 Este 19 Este 0 -- -- 89
2017-10-03 10:00:00 15.7 13 Este 16 Este 0 -- -- 98
2017-10-03 09:00:00 13.2 10 Este 14 Este 0 -- -- 99
2017-10-03 08:00:00 11.7 11 Este 14 Este 0 -- -- 99
2017-10-03 07:00:00 12.2 7 Este 9 Sudeste 0 -- -- 99
2017-10-03 06:00:00 13 6 Sudeste 12 Sudeste 0 -- -- 99
2017-10-03 05:00:00 13.3 10 Sudeste 14 Este 0 -- -- 99
2017-10-03 04:00:00 14.6 12 Este 17 Este 0 -- -- 99
2017-10-03 03:00:00 14.7 12 Este 14 Este 0 -- -- 99
2017-10-03 02:00:00 14.8 11 Este 12 Este 0 -- -- 98
2017-10-03 01:00:00 15.7 11 Este 33 Este 0 -- -- 95
2017-10-03 00:00:00 16.5 11 Sudeste 13 Este 0 -- -- 91
2017-10-02 23:00:00 17 11 Este 14 Este 0 -- -- 89
2017-10-02 22:00:00 18.2 10 Este 13 Sudeste 0 -- -- 85
2017-10-02 21:00:00 20.4 11 Sudeste 14 Sudeste 0 -- -- 79
2017-10-02 20:00:00 22 10 Sudeste 15 Sudeste 0 -- -- 73
2017-10-02 19:00:00 24.6 10 Sudeste 21 Sudeste 0 -- -- 68
2017-10-02 18:00:00 25.4 11 Sudeste 20 Este 0 -- -- 66
2017-10-02 17:00:00 25.5 13 Este 23 Norte 0 -- -- 66
2017-10-02 16:00:00 25.3 6 Este 24 Nordeste 0 -- -- 69
2017-10-02 15:00:00 25.1 13 Nordeste 26 Nordeste 0 -- -- 71
2017-10-02 14:00:00 23.3 11 Este 22 Este 0 -- -- 77
2017-10-02 13:00:00 23 7 Nordeste 20 Sudeste 0 -- -- 80
2017-10-02 12:00:00 21.2 8 Este 18 Este 0 -- -- 83
2017-10-02 11:00:00 19.8 10 Este 15 Este 0 -- -- 86
2017-10-02 10:00:00 18 7 Este 12 Este 0 -- -- 92
2017-10-02 09:00:00 14.5 5 Este 14 Este 0 -- -- 99
2017-10-02 08:00:00 13.2 10 Este 13 Este 0 -- -- 99
2017-10-02 07:00:00 13.3 11 Este 14 Este 0 -- -- 99
2017-10-02 06:00:00 14.1 12 Este 14 Este 0 -- -- 96
2017-10-02 05:00:00 14.1 6 Nordeste 10 Nordeste 0 -- -- 94
2017-10-02 04:00:00 15.4 4 Este 10 Este 0 -- -- 88
2017-10-02 03:00:00 15.7 8 Este 9 Este 0 -- -- 87
2017-10-02 02:00:00 15.8 6 Este 9 Este 0 -- -- 85
2017-10-02 01:00:00 15.1 8 Este 9 Este 0 -- -- 83
2017-10-02 00:00:00 15.7 8 Este 11 Nordeste 0 -- -- 80
2017-10-01 23:00:00 16.1 10 Nordeste 11 Nordeste 0 -- -- 76
2017-10-01 22:00:00 18 9 Norte 10 Norte 0 -- -- 68
2017-10-01 21:00:00 19.7 8 Norte 16 Norte 0 -- -- 65
2017-10-01 20:00:00 20.9 14 Norte 19 Norte 0 -- -- 60
2017-10-01 19:00:00 21.8 3 Norte 15 Norte 0 -- -- 59
2017-10-01 18:00:00 22.1 8 Noroeste 14 Noroeste 0 -- -- 60
2017-10-01 17:00:00 21.8 8 Noroeste 15 Noroeste 0 -- -- 61
2017-10-01 16:00:00 21.5 8 Norte 18 Norte 0 -- -- 62
2017-10-01 15:00:00 20.7 7 Norte 19 Noroeste 0 -- -- 65
2017-10-01 14:00:00 20 5 Sudeste 21 Noroeste 0 -- -- 69
2017-10-01 13:00:00 18.6 8 Noroeste 15 Norte 0 -- -- 72
2017-10-01 12:00:00 17.9 4 Norte 10 Este 0 -- -- 79
2017-10-01 11:00:00 16.7 5 Este 10 Este 0 -- -- 85
2017-10-01 10:00:00 12.7 4 Norte 8 Este 0 -- -- 99
2017-10-01 09:00:00 12 8 Este 12 Este 0 -- -- 99
2017-10-01 08:00:00 11.2 8 Este 10 Este 0 -- -- 99
2017-10-01 07:00:00 11.6 9 Nordeste 12 Este 0 -- -- 99
2017-10-01 06:00:00 11.3 7 Este 12 Nordeste 0 -- -- 99
2017-10-01 05:00:00 11.9 9 Este 14 Este 0 -- -- 99
2017-10-01 04:00:00 11.3 6 Nordeste 17 Este 0 -- -- 99
2017-10-01 03:00:00 12.3 14 Este 21 Este 0 -- -- 99
2017-10-01 02:00:00 12.8 16 Este 23 Este 0 -- -- 99
2017-10-01 01:00:00 13 19 Este 26 Este 0 -- -- 99
2017-10-01 00:00:00 13.6 23 Este 32 Este 0 -- -- 99
2017-09-30 23:00:00 14.7 21 Nordeste 30 Este 0 -- -- 92
2017-09-30 22:00:00 16.1 22 Este 29 Este 0 -- -- 84
2017-09-30 21:00:00 17.6 17 Nordeste 22 Nordeste 0 -- -- 74
2017-09-30 20:00:00 20.8 0 Calma 13 Nordeste 0 -- -- 59
2017-09-30 19:00:00 21.7 5 Norte 14 Noroeste 0 -- -- 57
2017-09-30 18:00:00 21.7 6 Norte 21 Noroeste 0 -- -- 58
2017-09-30 17:00:00 22.1 5 Noroeste 18 Norte 0 -- -- 61
2017-09-30 16:00:00 21.6 7 Norte 18 Norte 0 -- -- 65
2017-09-30 15:00:00 21.4 10 Norte 19 Norte 0 -- -- 68
2017-09-30 14:00:00 20.2 9 Noroeste 23 Norte 0 -- -- 72
2017-09-30 13:00:00 18.9 8 Nordeste 14 Nordeste 0 -- -- 79
2017-09-30 12:00:00 16.3 7 Norte 11 Norte 0 -- -- 91
2017-09-30 11:00:00 15.1 5 Este 10 Nordeste 0 -- -- 98
2017-09-30 10:00:00 13.6 5 Nordeste 9 Sudeste 0 -- -- 99
2017-09-30 09:00:00 12.5 3 Sudeste 13 Este 0 -- -- 99
2017-09-30 08:00:00 12.4 9 Este 13 Este 0 -- -- 99
2017-09-30 07:00:00 11.9 6 Nordeste 9 Nordeste 0 -- -- 99
2017-09-30 06:00:00 12.1 6 Este 9 Norte 0 -- -- 99
2017-09-30 05:00:00 11.7 7 Norte 12 Este 0 -- -- 99
2017-09-30 04:00:00 12.5 9 Este 12 Este 0 -- -- 99
2017-09-30 03:00:00 12.4 9 Nordeste 18 Nordeste 0 -- -- 99
2017-09-30 02:00:00 12.7 10 Nordeste 19 Nordeste 0 -- -- 99
2017-09-30 01:00:00 13.6 12 Nordeste 15 Nordeste 0 -- -- 99
2017-09-30 00:00:00 16.5 13 Noroeste 20 Noroeste 0 -- -- 71
2017-09-29 23:00:00 17.9 14 Noroeste 22 Noroeste 0 -- -- 62
2017-09-29 22:00:00 18.6 14 Oeste 20 Oeste 0 -- -- 59
2017-09-29 21:00:00 20.3 15 Oeste 18 Oeste 0 -- -- 59
2017-09-29 20:00:00 22.1 10 Oeste 24 Oeste 0 -- -- 56
2017-09-29 19:00:00 24.1 14 Oeste 28 Oeste 0 -- -- 54
2017-09-29 18:00:00 25.7 24 Oeste 35 Oeste 0 -- -- 52
2017-09-29 17:00:00 26.6 19 Oeste 34 Oeste 0 -- -- 52
2017-09-29 16:00:00 25.6 16 Oeste 33 Oeste 0 -- -- 52
2017-09-29 15:00:00 25.3 17 Noroeste 36 Oeste 0 -- -- 52
2017-09-29 14:00:00 24.7 13 Oeste 26 Oeste 0 -- -- 54
2017-09-29 13:00:00 23.6 13 Oeste 21 Oeste 0 -- -- 56
2017-09-29 12:00:00 22.2 7 Sudoeste 13 Oeste 0 -- -- 58
2017-09-29 11:00:00 18.6 5 Sudoeste 15 Oeste 0 -- -- 60
2017-09-29 10:00:00 15.2 10 Sudoeste 13 Sudoeste 0 -- -- 67
2017-09-29 09:00:00 12.5 5 Sur 11 Sur 0 -- -- 71
2017-09-29 08:00:00 12.4 4 Sur 7 Sur 0 -- -- 70
2017-09-29 07:00:00 13.1 5 Sudeste 9 Sudoeste 0 -- -- 66
2017-09-29 06:00:00 13.2 7 Sudoeste 8 Oeste 0 -- -- 64
2017-09-29 05:00:00 13.2 9 Oeste 11 Oeste 0 -- -- 63
2017-09-29 04:00:00 15.6 6 Sudoeste 9 Sur 0 -- -- 57
2017-09-29 03:00:00 16.7 5 Sudeste 13 Sudoeste 0 -- -- 57
2017-09-29 02:00:00 15.1 9 Sudoeste 15 Sudoeste 0 -- -- 58
2017-09-29 01:00:00 15.8 9 Oeste 13 Noroeste 0 -- -- 54
2017-09-29 00:00:00 19 6 Este 9 Este 0 -- -- 51
2017-09-28 23:00:00 19.3 7 Este 8 Este 0 -- -- 49
2017-09-28 22:00:00 19.9 5 Norte 9 Noroeste 0 -- -- 48
2017-09-28 21:00:00 19.8 8 Noroeste 12 Oeste 0 -- -- 47
2017-09-28 20:00:00 22 11 Oeste 19 Oeste 0 -- -- 44
2017-09-28 19:00:00 25.8 10 Oeste 21 Sudoeste 0 -- -- 41
2017-09-28 18:00:00 26.4 7 Sur 23 Sudoeste 0 -- -- 41
2017-09-28 17:00:00 25.9 9 Sudoeste 24 Oeste 0 -- -- 42
2017-09-28 16:00:00 26.1 6 Oeste 23 Oeste 0 -- -- 42
2017-09-28 15:00:00 25.6 7 Sudoeste 22 Sudoeste 0 -- -- 43
2017-09-28 14:00:00 25.1 10 Sudoeste 26 Oeste 0 -- -- 45
2017-09-28 13:00:00 23.8 3 Sudoeste 14 Sudoeste 0 -- -- 48
2017-09-28 12:00:00 21.5 8 Sur 18 Sur 0 -- -- 55
2017-09-28 11:00:00 18 10 Sur 17 Sur 0 -- -- 62
2017-09-28 10:00:00 14.2 11 Sur 16 Sur 0 -- -- 69
2017-09-28 09:00:00 11.2 6 Sudeste 12 Sudeste 0 -- -- 72
2017-09-28 08:00:00 10.7 5 Sudeste 12 Sudeste 0 -- -- 68
2017-09-28 07:00:00 10 8 Sur 12 Sur 0 -- -- 68
2017-09-28 06:00:00 10.6 8 Sudeste 10 Sudeste 0 -- -- 65
2017-09-28 05:00:00 10 7 Este 12 Sudoeste 0 -- -- 66
2017-09-28 04:00:00 9.7 12 Sudoeste 19 Sudoeste 0 -- -- 62
2017-09-28 03:00:00 11.8 13 Sudoeste 17 Sur 0 -- -- 56
2017-09-28 02:00:00 14.7 17 Sur 22 Sur 0 -- -- 53
2017-09-28 01:00:00 18.5 4 Sur 9 Sur 0 -- -- 44
2017-09-28 00:00:00 19.8 5 Sur 8 Sur 0 -- -- 42
2017-09-27 23:00:00 19.2 6 Sudeste -- -- 0 -- -- 42
2017-09-27 22:00:00 20.8 2 Sur 3 Sur 0 -- -- 41
2017-09-27 21:00:00 20.6 2 Oeste 8 Noroeste 0 -- -- 41
2017-09-27 20:00:00 21.9 8 Noroeste 15 Noroeste 0 -- -- 39
2017-09-27 19:00:00 24.6 13 Oeste 22 Noroeste 0 -- -- 38
2017-09-27 18:00:00 24.8 11 Oeste 25 Oeste 0 -- -- 38
2017-09-27 17:00:00 25.1 13 Oeste 26 Oeste 0 -- -- 39
2017-09-27 16:00:00 24.6 14 Oeste 31 Oeste 0 -- -- 41
2017-09-27 15:00:00 24.8 12 Oeste 26 Oeste 0 -- -- 42
2017-09-27 14:00:00 23.1 8 Oeste 27 Oeste 0 -- -- 45
2017-09-27 13:00:00 21.9 6 Sur 15 Sur 0 -- -- 51
2017-09-27 12:00:00 20.1 5 Sudeste 14 Sudeste 0 -- -- 58
2017-09-27 11:00:00 17 9 Sudeste 14 Sudeste 0 -- -- 66
2017-09-27 10:00:00 14.2 10 Sudeste 12 Sudeste 0 -- -- 75
2017-09-27 09:00:00 10.4 10 Sudeste 12 Sudeste 0 -- -- 84
2017-09-27 08:00:00 9.9 6 Sudeste 8 Sudeste 0 -- -- 83
2017-09-27 07:00:00 8.3 4 Oeste 11 Sudeste 0 -- -- 83
2017-09-27 06:00:00 10.3 10 Sudeste 12 Sudeste 0 -- -- 77
2017-09-27 05:00:00 12.1 9 Sudeste 14 Sudeste 0 -- -- 72
2017-09-27 04:00:00 12 12 Sudeste 13 Sudeste 0 -- -- 72
2017-09-27 03:00:00 12.3 10 Este 10 Este 0 -- -- 68
2017-09-27 02:00:00 12.8 7 Este 9 Sudeste 0 -- -- 64
2017-09-27 01:00:00 14.9 7 Sudeste 9 Sudeste 0 -- -- 58
2017-09-27 00:00:00 15.6 6 Este 7 Sudeste 0 -- -- 57
2017-09-26 23:00:00 16.9 0 Calma -- -- 0 -- -- 54
2017-09-26 22:00:00 17.7 3 Nordeste 6 Norte 0 -- -- 52
2017-09-26 21:00:00 17.1 5 Norte 6 Norte 0 -- -- 51
2017-09-26 20:00:00 19.7 5 Noroeste 12 Oeste 0 -- -- 47
2017-09-26 19:00:00 21.8 5 Noroeste 14 Noroeste 0 -- -- 45
2017-09-26 18:00:00 22.7 4 Oeste 20 Sudoeste 0 -- -- 45
2017-09-26 17:00:00 22.4 4 Oeste 19 Oeste 0 -- -- 48
2017-09-26 16:00:00 21.6 4 Noroeste 16 Noroeste 0 -- -- 49
2017-09-26 15:00:00 20.5 2 Este 16 Norte 0 -- -- 57
2017-09-26 14:00:00 19.3 7 Norte 12 Nordeste 0 -- -- 62
2017-09-26 13:00:00 18.1 6 Este 19 Nordeste 0 -- -- 67
2017-09-26 12:00:00 16.6 12 Este 21 Este 0 -- -- 76
2017-09-26 11:00:00 14.2 15 Este 22 Este 0 -- -- 90
2017-09-26 10:00:00 11.5 14 Este 19 Este 0 -- -- 99
2017-09-26 09:00:00 9.5 15 Este 19 Este 0 -- -- 99
2017-09-26 08:00:00 8.8 17 Este 20 Este 0 -- -- 99
2017-09-26 07:00:00 9 17 Este 19 Este 0 -- -- 99
2017-09-26 06:00:00 9.1 17 Este 23 Este 0 -- -- 99
2017-09-26 05:00:00 9.5 19 Este 22 Este 0 -- -- 99
2017-09-26 04:00:00 10.3 21 Este 25 Este 0 -- -- 99
2017-09-26 03:00:00 10.5 21 Este 29 Este 0 -- -- 99
2017-09-26 02:00:00 10.7 21 Este 27 Este 0 -- -- 99
2017-09-26 01:00:00 11.4 21 Este 33 Este 0 -- -- 99
2017-09-26 00:00:00 11.8 23 Este 39 Este 0 -- -- 99
2017-09-25 23:00:00 12.4 25 Este 35 Este 0 -- -- 97
2017-09-25 22:00:00 13.1 17 Este 32 Este 0 -- -- 90
2017-09-25 21:00:00 14.7 16 Este 31 Nordeste 0 -- -- 82
2017-09-25 20:00:00 17.9 10 Nordeste 28 Nordeste 0 -- -- 65
2017-09-25 19:00:00 20.2 3 Nordeste 15 Nordeste 0 -- -- 57
2017-09-25 18:00:00 20.3 11 Nordeste 20 Norte 0 -- -- 56
2017-09-25 17:00:00 19.9 6 Norte 33 Norte 0 -- -- 59
2017-09-25 16:00:00 20.8 8 Noroeste 22 Norte 0 -- -- 62
2017-09-25 15:00:00 20.2 5 Norte 24 Noroeste 0 -- -- 63
2017-09-25 14:00:00 18.2 6 Norte 19 Este 0 -- -- 71
2017-09-25 13:00:00 18 6 Este 19 Sudeste 0 -- -- 75
2017-09-25 12:00:00 16.1 5 Este 13 Nordeste 0 -- -- 83
2017-09-25 11:00:00 13.2 3 Noroeste 18 Oeste 0 -- -- 95
2017-09-25 10:00:00 11.5 14 Noroeste 19 Noroeste 0 -- -- 99
2017-09-25 09:00:00 10.4 15 Oeste 21 Oeste 0 -- -- 99
2017-09-25 08:00:00 10 15 Oeste 20 Oeste 0 -- -- 99
2017-09-25 07:00:00 10.4 14 Oeste 21 Oeste 0 -- -- 99
2017-09-25 06:00:00 11.9 11 Oeste 28 Oeste 0 -- -- 95
2017-09-25 05:00:00 13.6 19 Oeste 30 Oeste 0 -- -- 95
2017-09-25 04:00:00 14.2 14 Oeste 20 Oeste 0 -- -- 90
2017-09-25 03:00:00 15.6 18 Oeste 28 Oeste 0 -- -- 72
2017-09-25 02:00:00 16.8 14 Oeste 23 Oeste 0 -- -- 58
2017-09-25 01:00:00 18.5 21 Oeste 28 Oeste 0 -- -- 47
2017-09-25 00:00:00 19.2 20 Oeste 26 Oeste 0 -- -- 39
2017-09-24 23:00:00 18.8 18 Oeste 28 Oeste 0 -- -- 38
2017-09-24 22:00:00 19.9 22 Oeste 28 Oeste 0 -- -- 35
2017-09-24 21:00:00 20.9 20 Oeste 30 Oeste 0 -- -- 33
2017-09-24 20:00:00 23 16 Oeste 29 Oeste 0 -- -- 30
2017-09-24 19:00:00 25.7 24 Oeste 42 Oeste 0 -- -- 30
2017-09-24 18:00:00 27 27 Oeste 37 Oeste 0 -- -- 34
2017-09-24 17:00:00 26.9 22 Oeste 41 Oeste 0 -- -- 39
2017-09-24 16:00:00 26.6 23 Oeste 36 Oeste 0 -- -- 42
2017-09-24 15:00:00 25.4 19 Oeste 37 Oeste 0 -- -- 45
2017-09-24 14:00:00 25.2 19 Oeste 41 Oeste 0 -- -- 47
2017-09-24 13:00:00 23.8 15 Sudoeste 24 Sudoeste 0 -- -- 48
2017-09-24 12:00:00 21.8 9 Sudoeste 16 Sudoeste 0 -- -- 52
2017-09-24 11:00:00 19.4 11 Sudoeste 15 Sudoeste 0 -- -- 58
2017-09-24 10:00:00 15.7 11 Sudoeste 16 Sudoeste 0 -- -- 69
2017-09-24 09:00:00 11 13 Sudoeste 16 Sudoeste 0 -- -- 80
2017-09-24 08:00:00 9.5 13 Sudoeste 15 Sudoeste 0 -- -- 77
2017-09-24 07:00:00 11.3 11 Sur 13 Sudoeste 0 -- -- 68
2017-09-24 06:00:00 13.3 4 Sudoeste 7 Sudoeste 0 -- -- 64
2017-09-24 05:00:00 13.6 4 Sudoeste 12 Sudoeste 0 -- -- 62
2017-09-24 04:00:00 12.9 10 Sudoeste 12 Sudoeste 0 -- -- 62
2017-09-24 03:00:00 13.5 9 Sudoeste 11 Sudoeste 0 -- -- 58
2017-09-24 02:00:00 15.6 6 Oeste 9 Noroeste 0 -- -- 55
2017-09-24 01:00:00 15.2 9 Noroeste 14 Oeste 0 -- -- 54
2017-09-24 00:00:00 15.4 12 Oeste 14 Oeste 0 -- -- 54
2017-09-23 23:00:00 16.6 10 Oeste 12 Oeste 0 -- -- 54
2017-09-23 22:00:00 19.8 3 Oeste 5 Noroeste 0 -- -- 49
2017-09-23 21:00:00 20.6 2 Noroeste 8 Oeste 0 -- -- 47
2017-09-23 20:00:00 22.1 6 Oeste 28 Oeste 0 -- -- 43
2017-09-23 19:00:00 24.2 19 Oeste 33 Oeste 0 -- -- 40
2017-09-23 18:00:00 25.4 17 Oeste 35 Sudoeste 0 -- -- 39
2017-09-23 17:00:00 26.1 19 Oeste 40 Oeste 0 -- -- 38
2017-09-23 16:00:00 25.7 22 Oeste 40 Oeste 0 -- -- 39
2017-09-23 15:00:00 24.6 16 Oeste 31 Oeste 0 -- -- 45
2017-09-23 14:00:00 23.2 8 Oeste 23 Oeste 0 -- -- 52
2017-09-23 13:00:00 22 6 Sudoeste 18 Oeste 0 -- -- 58
2017-09-23 12:00:00 19.9 12 Sudoeste 20 Sur 0 -- -- 69
2017-09-23 11:00:00 16.2 8 Sudeste 18 Sudeste 0 -- -- 86
2017-09-23 10:00:00 13 13 Este 17 Este 0 -- -- 99
2017-09-23 09:00:00 10.3 11 Este 16 Este 0 -- -- 99
2017-09-23 08:00:00 9 13 Este 14 Este 0 -- -- 99
2017-09-23 07:00:00 9.2 11 Este 14 Este 0 -- -- 99
2017-09-23 06:00:00 9.5 9 Este 14 Este 0 -- -- 99
2017-09-23 05:00:00 10.4 13 Este 21 Este 0 -- -- 99
2017-09-23 04:00:00 11.1 15 Este 22 Este 0 -- -- 99
2017-09-23 03:00:00 12 15 Este 21 Este 0 -- -- 99
2017-09-23 02:00:00 12.5 15 Este 22 Este 0 -- -- 96
2017-09-23 01:00:00 13.1 16 Este 22 Este 0 -- -- 94
2017-09-23 00:00:00 14 18 Este 22 Este 0 -- -- 89
2017-09-22 23:00:00 15.4 18 Este 27 Este 0 -- -- 84
2017-09-22 22:00:00 16.1 20 Este 26 Este 0 -- -- 79
2017-09-22 21:00:00 17.7 16 Este 23 Nordeste 0 -- -- 72
2017-09-22 20:00:00 20 15 Nordeste 26 Este 0 -- -- 63
2017-09-22 19:00:00 22.1 22 Este 31 Nordeste 0 -- -- 58
2017-09-22 18:00:00 23.3 15 Nordeste 31 Nordeste 0 -- -- 56
2017-09-22 17:00:00 22.9 17 Nordeste 28 Nordeste 0 -- -- 57
2017-09-22 16:00:00 22.4 17 Nordeste 32 Nordeste 0 -- -- 60
2017-09-22 15:00:00 21.6 18 Nordeste 31 Nordeste 0 -- -- 62
2017-09-22 14:00:00 21 14 Nordeste 36 Sudeste 0 -- -- 65
2017-09-22 13:00:00 20.4 19 Este 36 Este 0 -- -- 68
2017-09-22 12:00:00 18.8 24 Este 36 Este 0 -- -- 76
2017-09-22 11:00:00 16.1 25 Este 39 Este 0 -- -- 89
2017-09-22 10:00:00 13.3 25 Este 34 Este 0 -- -- 99
2017-09-22 09:00:00 11.5 20 Este 28 Este 0 -- -- 99
2017-09-22 08:00:00 10.7 20 Este 28 Este 0 -- -- 99
2017-09-22 07:00:00 10.7 23 Este 28 Este 0 -- -- 99
2017-09-22 06:00:00 10.9 20 Este 28 Este 0 -- -- 99
2017-09-22 05:00:00 11.6 28 Este 38 Este 0 -- -- 99
2017-09-22 04:00:00 11.8 26 Este 35 Este 0 -- -- 99
2017-09-22 03:00:00 12.3 25 Este 35 Este 0 -- -- 99
2017-09-22 02:00:00 12.8 27 Este 42 Este 0 -- -- 99
2017-09-22 01:00:00 12.9 28 Este 38 Este 0 -- -- 99
2017-09-22 00:00:00 13.4 24 Este 32 Este 0 -- -- 98
2017-09-21 23:00:00 14.1 26 Este 40 Este 0 -- -- 96
2017-09-21 22:00:00 14.5 32 Este 46 Este 0 -- -- 91
2017-09-21 21:00:00 16.1 22 Nordeste -- -- -- -- -- 83
2017-09-21 20:00:00 -- -- -- -- -- -- -- -- --
2017-09-21 19:00:00 22.5 8 Norte 18 Noroeste 0 -- -- 38
2017-09-21 18:00:00 23.4 10 Noroeste 26 Noroeste 0 -- -- 39
2017-09-21 17:00:00 23.4 14 Noroeste 26 Noroeste 0 -- -- 39
2017-09-21 16:00:00 23.6 14 Noroeste 24 Noroeste 0 -- -- 38
2017-09-21 15:00:00 24.5 16 Noroeste 25 Noroeste 0 -- -- 38
2017-09-21 14:00:00 23.2 11 Noroeste 20 Noroeste 0 -- -- 39
2017-09-21 13:00:00 23 3 Oeste 14 Oeste 0 -- -- 39
2017-09-21 12:00:00 20.7 6 Sur 14 Sudoeste 0 -- -- 43
2017-09-21 11:00:00 18.2 9 Sur 14 Sur 0 -- -- 47
2017-09-21 10:00:00 15.1 5 Sudeste 10 Sur 0 -- -- 55
2017-09-21 09:00:00 11.9 7 Sudeste 15 Sudeste 0 -- -- 61
2017-09-21 08:00:00 9.5 13 Sudeste 14 Sudeste 0 -- -- 64
2017-09-21 07:00:00 10.1 11 Sudeste 12 Sudeste 0 -- -- 61
2017-09-21 06:00:00 11.1 8 Este 10 Este 0 -- -- 57
2017-09-21 05:00:00 11.7 3 Sudeste 17 Oeste 0 -- -- 53
2017-09-21 04:00:00 13.7 5 Sur 10 Sur 0 -- -- 47
2017-09-21 03:00:00 15.5 5 Sudeste 11 Sur 0 -- -- 44
2017-09-21 02:00:00 17.3 4 Sudeste 9 Sur 0 -- -- 41
2017-09-21 01:00:00 18.1 5 Sudeste 10 Sudeste 0 -- -- 40
2017-09-21 00:00:00 18.5 6 Sudeste 8 Sudeste 0 -- -- 39
2017-09-20 23:00:00 18.5 4 Este 6 Este 0 -- -- 38
2017-09-20 22:00:00 17.7 4 Noroeste 8 Noroeste 0 -- -- 38
2017-09-20 21:00:00 18.8 6 Noroeste 8 Noroeste 0 -- -- 37
2017-09-20 20:00:00 21.5 8 Noroeste 15 Oeste 0 -- -- 34
2017-09-20 19:00:00 24.2 10 Noroeste 20 Noroeste 0 -- -- 32
2017-09-20 18:00:00 24.4 9 Noroeste 24 Noroeste 0 -- -- 33
2017-09-20 17:00:00 24.5 10 Noroeste 23 Noroeste 0 -- -- 33
2017-09-20 16:00:00 23.6 6 Noroeste 22 Noroeste 0 -- -- 34
2017-09-20 15:00:00 23.4 9 Oeste 17 Oeste 0 -- -- 35
2017-09-20 14:00:00 21.7 4 Oeste 19 Noroeste 0 -- -- 37
2017-09-20 13:00:00 20.9 4 Sudeste 13 Sudeste 0 -- -- 38
2017-09-20 12:00:00 19.1 6 Sudoeste 14 Sudoeste 0 -- -- 41
2017-09-20 11:00:00 15.4 6 Sudeste 13 Este 0 -- -- 55
2017-09-20 10:00:00 11.7 9 Este 14 Este 0 -- -- 67
2017-09-20 09:00:00 8.4 10 Este 13 Este 0 -- -- 81
2017-09-20 08:00:00 6.3 13 Este 15 Este 0 -- -- 85
2017-09-20 07:00:00 6.4 13 Este 15 Este 0 -- -- 83
2017-09-20 06:00:00 7.2 13 Este 15 Este 0 -- -- 80
2017-09-20 05:00:00 7.9 13 Este 15 Este 0 -- -- 77
2017-09-20 04:00:00 8.2 8 Este 14 Este 0 -- -- 73
2017-09-20 03:00:00 9.4 13 Este 15 Este 0 -- -- 70
2017-09-20 02:00:00 9.8 13 Este 15 Sudeste 0 -- -- 66
2017-09-20 01:00:00 10.7 13 Sudeste 15 Sudeste 0 -- -- 61
2017-09-20 00:00:00 11.4 12 Sudeste 14 Este 0 -- -- 55